< < Back
Terminal Aerodrome Forecast


Current Version              Previous Versions:   1  2  3  4  5  6  7  8  9  

Terminal Aerodrome Forecast

359
FTUS42 KTAE 032300
TAFTLH
TAF
KTLH 032331Z 0400/0424 15004KT P6SM SCT050
     FM040600 16003KT 2SM BR BKN002
     FM041000 00000KT 1/4SM FG VV001
     FM041400 16004KT 3SM BR OVC004
     FM041600 19008KT P6SM SCT015 BKN035=



Latest METAR

974
SAUS80 KWBC 040400 RRA
MTRTLH
METAR KTLH 040353Z 00000KT 1/2SM FG BKN004 16/15 A3013 RMK AO2 SLP201
LAST AUGMENTED OBS T01610150 $


USA.gov is the U.S. government's official web portal to all federal, state and local government web resources and services.